Time;durP1;ratioP1;P1;durP2;ratioP2;P2;SDS_P1;SDS_P2;PMS_P1;PMS_P2;Temp;Humidity;BMP_temperature;BMP_pressure;BME280_temperature;BME280_humidity;BME280_pressure;Samples;Min_cycle;Max_cycle;Signal;HPM_P1;HPM_P2
2024/02/19 00:01:13;;;;;;;121.65;78.95;;;;;;;;;;5011414;28;20029;-65
2024/02/19 00:03:39;;;;;;;119.18;78.47;;;;;;;;;;5011467;28;20394;-65
2024/02/19 00:06:05;;;;;;;116.65;74.65;;;;;;;;;;5011269;28;20026;-65
2024/02/19 00:08:31;;;;;;;120.65;75.80;;;;;;;;;;5011405;28;20029;-65
2024/02/19 00:10:57;;;;;;;122.07;75.97;;;;;;;;;;5011061;28;20022;-65
2024/02/19 00:13:23;;;;;;;118.57;75.65;;;;;;;;;;5011585;28;20093;-64
2024/02/19 00:15:50;;;;;;;115.63;75.15;;;;;;;;;;5011318;28;20521;-64
2024/02/19 00:18:16;;;;;;;112.85;74.30;;;;;;;;;;5011473;28;20049;-65
2024/02/19 00:20:42;;;;;;;115.10;74.60;;;;;;;;;;5011141;28;20018;-65
2024/02/19 00:23:08;;;;;;;114.65;73.35;;;;;;;;;;5011389;28;20032;-65
2024/02/19 00:25:34;;;;;;;108.05;71.65;;;;;;;;;;5011140;28;20092;-65
2024/02/19 00:28:00;;;;;;;110.47;71.50;;;;;;;;;;5011587;28;20389;-65
2024/02/19 00:30:26;;;;;;;103.28;67.93;;;;;;;;;;5011154;28;20022;-66
2024/02/19 00:32:53;;;;;;;109.22;69.22;;;;;;;;;;5011264;28;20097;-65
2024/02/19 00:35:20;;;;;;;108.90;69.07;;;;;;;;;;5011211;28;20029;-64
2024/02/19 00:37:47;;;;;;;114.88;71.57;;;;;;;;;;5010992;28;20112;-63
2024/02/19 00:40:13;;;;;;;99.88;68.20;;;;;;;;;;5011077;28;20057;-65
2024/02/19 00:42:39;;;;;;;98.35;64.93;;;;;;;;;;5011068;28;20036;-65
2024/02/19 00:45:05;;;;;;;101.25;65.97;;;;;;;;;;5011346;28;20022;-65
2024/02/19 00:47:32;;;;;;;103.32;66.25;;;;;;;;;;5010943;28;20021;-65
2024/02/19 00:49:58;;;;;;;99.22;64.95;;;;;;;;;;5011085;28;20026;-66
2024/02/19 00:52:24;;;;;;;97.10;64.30;;;;;;;;;;5010953;28;20021;-67
2024/02/19 00:54:50;;;;;;;100.43;63.90;;;;;;;;;;5011014;28;20022;-66
2024/02/19 00:57:16;;;;;;;96.47;63.05;;;;;;;;;;5010990;28;20034;-66
2024/02/19 00:59:42;;;;;;;102.50;64.47;;;;;;;;;;5010998;28;20036;-66
2024/02/19 01:02:08;;;;;;;95.85;64.05;;;;;;;;;;5011063;28;20022;-65
2024/02/19 01:04:35;;;;;;;97.72;63.85;;;;;;;;;;5011029;28;20029;-66
2024/02/19 01:07:01;;;;;;;95.68;62.40;;;;;;;;;;5010847;28;20387;-67
2024/02/19 01:09:27;;;;;;;95.45;60.53;;;;;;;;;;5010794;28;20026;-67
2024/02/19 01:11:53;;;;;;;95.50;61.22;;;;;;;;;;5010821;28;20509;-67
2024/02/19 01:14:19;;;;;;;91.22;60.05;;;;;;;;;;5010993;28;20101;-67
2024/02/19 01:16:46;;;;;;;91.45;59.38;;;;;;;;;;5011306;28;20030;-67
2024/02/19 01:19:12;;;;;;;90.93;60.25;;;;;;;;;;5014757;28;20426;-67
2024/02/19 01:21:38;;;;;;;86.65;58.15;;;;;;;;;;5014217;28;20025;-67
2024/02/19 01:24:04;;;;;;;86.97;55.85;;;;;;;;;;5014592;28;20033;-67
2024/02/19 01:26:30;;;;;;;88.18;57.25;;;;;;;;;;5014474;28;20026;-67
2024/02/19 01:28:56;;;;;;;84.35;55.88;;;;;;;;;;5014582;28;20033;-67
2024/02/19 01:31:22;;;;;;;88.97;55.83;;;;;;;;;;4996575;28;20452;-67
2024/02/19 01:33:48;;;;;;;84.07;54.92;;;;;;;;;;5014501;28;20018;-65
2024/02/19 01:36:15;;;;;;;85.25;56.15;;;;;;;;;;5014209;28;20018;-67
2024/02/19 01:38:42;;;;;;;82.35;55.17;;;;;;;;;;5014139;28;20053;-67
2024/02/19 01:41:08;;;;;;;90.20;56.47;;;;;;;;;;5014491;28;20034;-66
2024/02/19 01:43:36;;;;;;;84.55;53.17;;;;;;;;;;5014103;28;20080;-66
2024/02/19 01:46:02;;;;;;;86.47;54.88;;;;;;;;;;5006556;28;20014;-65
2024/02/19 01:48:28;;;;;;;82.47;54.25;;;;;;;;;;5014108;28;20458;-66
2024/02/19 01:50:54;;;;;;;83.93;54.58;;;;;;;;;;5013650;28;20030;-66
2024/02/19 01:53:23;;;;;;;82.90;53.60;;;;;;;;;;5029365;28;20617;-66
2024/02/19 01:55:49;;;;;;;83.25;53.83;;;;;;;;;;5012331;28;20485;-65
2024/02/19 01:58:15;;;;;;;78.63;51.60;;;;;;;;;;5013984;28;20536;-65
2024/02/19 02:00:41;;;;;;;78.88;51.35;;;;;;;;;;5013617;28;20113;-66
2024/02/19 02:03:09;;;;;;;79.22;50.67;;;;;;;;;;5029307;28;20141;-67
2024/02/19 02:05:36;;;;;;;80.10;51.15;;;;;;;;;;5013591;28;20493;-66
2024/02/19 02:08:05;;;;;;;73.53;48.42;;;;;;;;;;5013887;28;20152;-66
2024/02/19 02:10:31;;;;;;;74.80;48.55;;;;;;;;;;4996451;28;20504;-65
2024/02/19 02:12:57;;;;;;;75.57;49.58;;;;;;;;;;5013649;28;20026;-66
2024/02/19 02:15:23;;;;;;;75.57;48.67;;;;;;;;;;5013622;28;20014;-64
2024/02/19 02:17:49;;;;;;;73.60;48.55;;;;;;;;;;5013434;28;20101;-65
2024/02/19 02:20:15;;;;;;;75.28;48.22;;;;;;;;;;5013396;28;20052;-65
2024/02/19 02:22:43;;;;;;;73.93;47.03;;;;;;;;;;5013230;28;20021;-65
2024/02/19 02:25:09;;;;;;;75.53;48.67;;;;;;;;;;5013505;28;20470;-65
2024/02/19 02:27:35;;;;;;;70.43;46.92;;;;;;;;;;5012872;28;20030;-64
2024/02/19 02:30:03;;;;;;;70.93;47.50;;;;;;;;;;5013416;28;20016;-66
2024/02/19 02:32:29;;;;;;;71.28;46.60;;;;;;;;;;5013139;28;20018;-66
2024/02/19 02:34:55;;;;;;;73.25;46.75;;;;;;;;;;5013375;28;20055;-65
2024/02/19 02:37:21;;;;;;;68.75;45.38;;;;;;;;;;5013406;28;20014;-65
2024/02/19 02:39:47;;;;;;;66.88;44.58;;;;;;;;;;5013253;28;20022;-65
2024/02/19 02:42:13;;;;;;;69.78;44.80;;;;;;;;;;5013073;28;20091;-64
2024/02/19 02:44:39;;;;;;;66.32;44.10;;;;;;;;;;5013054;28;20026;-66
2024/02/19 02:47:05;;;;;;;66.50;43.15;;;;;;;;;;5012883;28;20409;-65
2024/02/19 02:49:31;;;;;;;65.53;43.20;;;;;;;;;;5013027;28;20053;-65
2024/02/19 02:51:57;;;;;;;66.57;43.05;;;;;;;;;;5012664;28;20096;-65
2024/02/19 02:54:23;;;;;;;64.30;43.15;;;;;;;;;;5013007;28;20018;-65
2024/02/19 02:56:49;;;;;;;63.47;42.05;;;;;;;;;;5012559;28;20030;-65
2024/02/19 02:59:15;;;;;;;64.57;42.22;;;;;;;;;;5012980;28;20057;-65
2024/02/19 03:01:41;;;;;;;62.70;41.10;;;;;;;;;;5012415;28;20021;-65
2024/02/19 03:04:08;;;;;;;60.97;41.55;;;;;;;;;;5012769;28;20529;-65
2024/02/19 03:06:33;;;;;;;64.57;41.85;;;;;;;;;;5012777;28;20021;-65
2024/02/19 03:08:59;;;;;;;61.00;38.97;;;;;;;;;;5012584;28;20106;-65
2024/02/19 03:11:26;;;;;;;62.75;40.90;;;;;;;;;;5012353;28;20064;-65
2024/02/19 03:13:52;;;;;;;63.70;40.25;;;;;;;;;;5012471;28;20092;-65
2024/02/19 03:16:18;;;;;;;60.60;38.85;;;;;;;;;;5012565;28;20101;-66
2024/02/19 03:18:44;;;;;;;60.55;37.95;;;;;;;;;;5012614;28;20022;-66
2024/02/19 03:21:17;;;;;;;60.75;39.65;;;;;;;;;;5012527;28;20022;-66
2024/02/19 03:23:49;;;;;;;58.95;38.22;;;;;;;;;;5012373;28;20658;-66
2024/02/19 03:26:15;;;;;;;55.78;36.58;;;;;;;;;;5012456;28;20563;-66
2024/02/19 03:28:42;;;;;;;55.55;36.80;;;;;;;;;;5012006;28;20133;-65
2024/02/19 03:31:08;;;;;;;53.40;36.33;;;;;;;;;;5012343;28;20122;-66
2024/02/19 03:33:34;;;;;;;56.40;35.75;;;;;;;;;;5017453;28;20112;-66
2024/02/19 03:36:00;;;;;;;51.10;34.67;;;;;;;;;;5012113;28;20018;-66
2024/02/19 03:38:26;;;;;;;54.75;35.80;;;;;;;;;;5012112;28;20374;-66
2024/02/19 03:40:52;;;;;;;55.20;35.10;;;;;;;;;;5011334;28;20133;-66
2024/02/19 03:43:18;;;;;;;54.83;35.00;;;;;;;;;;5012988;28;20588;-67
2024/02/19 03:45:44;;;;;;;52.60;34.03;;;;;;;;;;5016777;28;20037;-66
2024/02/19 03:48:10;;;;;;;54.03;33.60;;;;;;;;;;5016367;28;20100;-67
2024/02/19 03:50:36;;;;;;;52.95;34.63;;;;;;;;;;5017415;28;20477;-65
2024/02/19 03:53:02;;;;;;;49.80;33.58;;;;;;;;;;5015767;28;20079;-66
2024/02/19 03:55:28;;;;;;;52.47;34.00;;;;;;;;;;5027715;28;20080;-66
2024/02/19 03:57:54;;;;;;;50.83;33.45;;;;;;;;;;5012130;28;20505;-66
2024/02/19 04:00:20;;;;;;;47.75;31.13;;;;;;;;;;4994095;28;20037;-65
2024/02/19 04:02:46;;;;;;;50.17;32.75;;;;;;;;;;5011518;28;20489;-66
2024/02/19 04:05:12;;;;;;;47.42;31.55;;;;;;;;;;5011797;28;20037;-67
2024/02/19 04:07:38;;;;;;;50.28;32.05;;;;;;;;;;5011507;28;20110;-66
2024/02/19 04:10:04;;;;;;;46.63;30.73;;;;;;;;;;5011672;28;20080;-66
2024/02/19 04:12:30;;;;;;;48.72;31.35;;;;;;;;;;5011228;28;20434;-66
2024/02/19 04:14:56;;;;;;;45.08;30.17;;;;;;;;;;5011623;28;20026;-66
2024/02/19 04:17:22;;;;;;;45.03;29.48;;;;;;;;;;5011427;28;20101;-65
2024/02/19 04:19:48;;;;;;;49.70;31.55;;;;;;;;;;5011426;28;20513;-64
2024/02/19 04:22:14;;;;;;;43.22;28.98;;;;;;;;;;5011452;28;20036;-66
2024/02/19 04:24:40;;;;;;;42.47;29.33;;;;;;;;;;5011457;28;20025;-65
2024/02/19 04:27:06;;;;;;;41.05;28.75;;;;;;;;;;5011344;28;20057;-66
2024/02/19 04:29:32;;;;;;;46.25;29.63;;;;;;;;;;5011309;28;20061;-65
2024/02/19 04:31:58;;;;;;;44.85;29.63;;;;;;;;;;5011163;28;20034;-65
2024/02/19 04:34:24;;;;;;;43.65;27.83;;;;;;;;;;5009906;28;20014;-65
2024/02/19 04:36:50;;;;;;;49.70;26.92;;;;;;;;;;5011245;28;20371;-65
2024/02/19 04:39:16;;;;;;;44.78;28.20;;;;;;;;;;5010845;28;20033;-65
2024/02/19 04:41:42;;;;;;;45.17;27.48;;;;;;;;;;5009625;28;20433;-67
2024/02/19 04:44:08;;;;;;;48.58;27.42;;;;;;;;;;5010161;28;20041;-65
2024/02/19 04:46:34;;;;;;;43.05;25.67;;;;;;;;;;5010091;28;20092;-66
2024/02/19 04:49:00;;;;;;;42.50;26.42;;;;;;;;;;5025159;28;20029;-66
2024/02/19 04:51:28;;;;;;;43.65;24.92;;;;;;;;;;5011500;28;20077;-65
2024/02/19 04:53:54;;;;;;;48.65;26.08;;;;;;;;;;5013961;28;20077;-66
2024/02/19 04:56:20;;;;;;;42.80;25.33;;;;;;;;;;5013785;28;20462;-66
2024/02/19 04:58:46;;;;;;;45.92;25.98;;;;;;;;;;5029412;28;20041;-66
2024/02/19 05:01:12;;;;;;;46.63;26.77;;;;;;;;;;5013739;28;20030;-67
2024/02/19 05:03:38;;;;;;;43.25;25.35;;;;;;;;;;5013504;28;20026;-66
2024/02/19 05:06:04;;;;;;;40.67;24.33;;;;;;;;;;5010617;28;20026;-66
2024/02/19 05:08:30;;;;;;;43.80;24.75;;;;;;;;;;5013522;28;20033;-66
2024/02/19 05:10:56;;;;;;;39.45;24.48;;;;;;;;;;5012769;28;20076;-66
2024/02/19 05:13:22;;;;;;;40.05;23.63;;;;;;;;;;5013108;28;20017;-66
2024/02/19 05:15:48;;;;;;;38.97;23.75;;;;;;;;;;5012911;28;20418;-66
2024/02/19 05:18:15;;;;;;;39.63;22.02;;;;;;;;;;5012908;28;20053;-65
2024/02/19 05:20:41;;;;;;;42.80;21.95;;;;;;;;;;5012807;28;20018;-65
2024/02/19 05:23:07;;;;;;;37.63;23.35;;;;;;;;;;5012836;28;20029;-66
2024/02/19 05:25:33;;;;;;;38.13;22.05;;;;;;;;;;5012687;28;20041;-65
2024/02/19 05:27:59;;;;;;;38.65;22.83;;;;;;;;;;5012559;28;20040;-65
2024/02/19 05:30:26;;;;;;;33.88;21.90;;;;;;;;;;5012928;28;20383;-64
2024/02/19 05:32:53;;;;;;;36.08;22.52;;;;;;;;;;5012887;28;20112;-65
2024/02/19 05:35:19;;;;;;;40.78;22.00;;;;;;;;;;5012578;28;20377;-64
2024/02/19 05:37:45;;;;;;;37.58;22.17;;;;;;;;;;5012402;28;20022;-64
2024/02/19 05:40:11;;;;;;;40.45;21.38;;;;;;;;;;5027533;28;20096;-64
2024/02/19 05:42:37;;;;;;;35.30;21.13;;;;;;;;;;5012491;28;20401;-63
2024/02/19 05:45:03;;;;;;;35.67;20.40;;;;;;;;;;5012530;28;20018;-64
2024/02/19 05:47:29;;;;;;;35.00;21.58;;;;;;;;;;5012287;28;20017;-64
2024/02/19 05:49:55;;;;;;;37.25;21.52;;;;;;;;;;5012183;28;20026;-63
2024/02/19 05:52:21;;;;;;;37.20;21.15;;;;;;;;;;5012501;28;20045;-64
2024/02/19 05:54:47;;;;;;;36.95;20.45;;;;;;;;;;5012215;28;20454;-65
2024/02/19 05:57:14;;;;;;;35.55;20.83;;;;;;;;;;5012732;28;20030;-65
2024/02/19 05:59:40;;;;;;;38.72;20.98;;;;;;;;;;5012993;28;20029;-65
2024/02/19 06:02:06;;;;;;;34.22;20.42;;;;;;;;;;5012727;28;20022;-65
2024/02/19 06:04:32;;;;;;;42.65;20.00;;;;;;;;;;5011482;28;20716;-67
2024/02/19 06:07:00;;;;;;;32.83;19.45;;;;;;;;;;5013121;28;20088;-67
2024/02/19 06:09:26;;;;;;;35.35;20.10;;;;;;;;;;5012803;28;20045;-67
2024/02/19 06:11:52;;;;;;;34.38;19.30;;;;;;;;;;5012785;28;20077;-67
2024/02/19 06:14:18;;;;;;;37.50;17.55;;;;;;;;;;5012951;28;20019;-68
2024/02/19 06:16:44;;;;;;;43.00;19.73;;;;;;;;;;5011092;28;20018;-70
2024/02/19 06:19:10;;;;;;;37.40;18.80;;;;;;;;;;5012795;28;20151;-67
2024/02/19 06:21:36;;;;;;;32.72;15.90;;;;;;;;;;5010462;28;20022;-65
2024/02/19 06:24:02;;;;;;;30.27;9.07;;;;;;;;;;5012702;28;20026;-65
2024/02/19 06:26:28;;;;;;;20.73;7.38;;;;;;;;;;5012356;28;20037;-65
2024/02/19 06:28:54;;;;;;;12.50;5.90;;;;;;;;;;5011610;28;20544;-65
2024/02/19 06:31:21;;;;;;;23.70;8.75;;;;;;;;;;5011751;28;20064;-67
2024/02/19 06:33:46;;;;;;;24.55;13.00;;;;;;;;;;5011524;28;20025;-66
2024/02/19 06:36:12;;;;;;;22.60;12.57;;;;;;;;;;5011570;28;20022;-66
2024/02/19 06:38:38;;;;;;;28.60;13.85;;;;;;;;;;5011528;28;20107;-67
2024/02/19 06:41:04;;;;;;;26.27;14.40;;;;;;;;;;5011408;28;20022;-66
2024/02/19 06:43:30;;;;;;;22.23;14.40;;;;;;;;;;5017190;28;20032;-66
2024/02/19 06:45:56;;;;;;;22.40;13.38;;;;;;;;;;5011415;28;20034;-66
2024/02/19 06:48:22;;;;;;;27.23;13.45;;;;;;;;;;5026418;28;20398;-67
2024/02/19 06:50:49;;;;;;;24.98;13.00;;;;;;;;;;5010984;28;20076;-67
2024/02/19 06:53:15;;;;;;;21.95;12.32;;;;;;;;;;5026359;28;20454;-64
2024/02/19 06:55:41;;;;;;;23.27;12.45;;;;;;;;;;5010847;28;20486;-66
2024/02/19 06:58:07;;;;;;;22.35;12.05;;;;;;;;;;5011063;28;20457;-66
2024/02/19 07:00:33;;;;;;;28.75;12.60;;;;;;;;;;5010834;28;20478;-65
2024/02/19 07:02:59;;;;;;;25.73;12.55;;;;;;;;;;5011126;28;20076;-66
2024/02/19 07:05:25;;;;;;;21.02;12.00;;;;;;;;;;5010069;28;20017;-65
2024/02/19 07:07:51;;;;;;;25.70;12.68;;;;;;;;;;5010388;28;20037;-66
2024/02/19 07:10:17;;;;;;;21.80;11.63;;;;;;;;;;5009996;28;20018;-66
2024/02/19 07:12:43;;;;;;;13.55;7.75;;;;;;;;;;5010790;28;20038;-67
2024/02/19 07:15:09;;;;;;;10.35;5.97;;;;;;;;;;5009578;28;20055;-67
2024/02/19 07:17:35;;;;;;;8.73;4.90;;;;;;;;;;5025686;28;20028;-67
2024/02/19 07:20:05;;;;;;;12.40;2.97;;;;;;;;;;5010514;28;20124;-68
2024/02/19 07:22:31;;;;;;;5.20;2.67;;;;;;;;;;5010531;28;20030;-67
2024/02/19 07:24:57;;;;;;;5.97;1.88;;;;;;;;;;5010674;28;20029;-64
2024/02/19 07:27:24;;;;;;;7.35;2.17;;;;;;;;;;5010715;28;20100;-66
2024/02/19 07:29:53;;;;;;;2.20;1.63;;;;;;;;;;5010466;28;20092;-66
2024/02/19 07:32:19;;;;;;;1.90;1.10;;;;;;;;;;5010570;28;20072;-66
2024/02/19 07:34:45;;;;;;;2.50;0.50;;;;;;;;;;5010459;28;20030;-67
2024/02/19 07:37:11;;;;;;;1.20;0.40;;;;;;;;;;5010491;28;20486;-67
2024/02/19 07:39:41;;;;;;;0.10;0.10;;;;;;;;;;5010194;28;20045;-65
2024/02/19 07:42:07;;;;;;;0.60;0.20;;;;;;;;;;5010471;28;20021;-66
2024/02/19 07:44:33;;;;;;;0.43;0.28;;;;;;;;;;5010260;28;20026;-65
2024/02/19 07:46:59;;;;;;;0.75;0.05;;;;;;;;;;5010176;28;20026;-66
2024/02/19 07:49:25;;;;;;;0.32;0.10;;;;;;;;;;5010206;28;20030;-65
2024/02/19 07:51:51;;;;;;;2.05;0.45;;;;;;;;;;5008085;28;20033;-68
2024/02/19 07:54:17;;;;;;;0.35;0.30;;;;;;;;;;5010240;28;20034;-68
2024/02/19 07:56:43;;;;;;;0.40;0.28;;;;;;;;;;5009885;28;20465;-67
2024/02/19 07:59:09;;;;;;;0.22;0.17;;;;;;;;;;5009944;28;20033;-67
2024/02/19 08:01:35;;;;;;;0.38;0.20;;;;;;;;;;5008471;28;20022;-68
2024/02/19 08:04:01;;;;;;;0.20;0.10;;;;;;;;;;5010625;28;20478;-68
2024/02/19 08:06:28;;;;;;;0.15;0.10;;;;;;;;;;5010499;28;20062;-67
2024/02/19 08:08:54;;;;;;;1.48;0.32;;;;;;;;;;5008996;28;20022;-68
2024/02/19 08:11:21;;;;;;;0.93;0.10;;;;;;;;;;5009734;28;20022;-68
2024/02/19 08:13:47;;;;;;;1.23;0.22;;;;;;;;;;5010543;28;20465;-69
2024/02/19 08:16:13;;;;;;;1.35;0.30;;;;;;;;;;5010607;28;20065;-68
2024/02/19 08:18:39;;;;;;;0.32;0.20;;;;;;;;;;5010383;28;20113;-69
2024/02/19 08:21:05;;;;;;;1.08;0.30;;;;;;;;;;5010368;28;20057;-68
2024/02/19 08:23:31;;;;;;;0.20;0.10;;;;;;;;;;5010432;28;20085;-68
2024/02/19 08:25:58;;;;;;;0.63;0.08;;;;;;;;;;5010026;28;20389;-67
2024/02/19 08:28:25;;;;;;;1.30;0.50;;;;;;;;;;5010470;28;20440;-68
2024/02/19 08:30:51;;;;;;;0.30;0.20;;;;;;;;;;5010003;28;20018;-68
2024/02/19 08:33:17;;;;;;;0.47;0.10;;;;;;;;;;5010518;28;20088;-68
2024/02/19 08:35:43;;;;;;;1.23;0.10;;;;;;;;;;5010299;28;20029;-68
2024/02/19 08:38:08;;;;;;;0.30;0.10;;;;;;;;;;5010250;28;20105;-68
2024/02/19 08:40:34;;;;;;;0.98;0.45;;;;;;;;;;5010219;28;20026;-68
2024/02/19 08:43:00;;;;;;;0.63;0.10;;;;;;;;;;5010258;28;20087;-68
2024/02/19 08:45:26;;;;;;;0.10;0.10;;;;;;;;;;5010112;28;20026;-68
2024/02/19 08:47:52;;;;;;;0.17;0.17;;;;;;;;;;5010098;28;20038;-68
2024/02/19 08:50:18;;;;;;;0.17;0.00;;;;;;;;;;5010108;28;20030;-68
2024/02/19 08:52:44;;;;;;;1.00;0.15;;;;;;;;;;5009740;28;20486;-68
2024/02/19 08:55:10;;;;;;;0.30;0.10;;;;;;;;;;5010166;28;20054;-68
2024/02/19 08:57:36;;;;;;;0.65;0.10;;;;;;;;;;5009702;28;20049;-67
2024/02/19 09:00:04;;;;;;;0.43;0.10;;;;;;;;;;5009971;28;20494;-68
2024/02/19 09:02:30;;;;;;;0.13;0.10;;;;;;;;;;5010104;28;20037;-68
2024/02/19 09:04:56;;;;;;;0.20;0.13;;;;;;;;;;5009882;28;20528;-67
2024/02/19 09:07:23;;;;;;;0.45;0.10;;;;;;;;;;5009947;28;20034;-68
2024/02/19 09:09:50;;;;;;;0.30;0.10;;;;;;;;;;5009823;28;20034;-67
2024/02/19 09:12:16;;;;;;;0.30;0.28;;;;;;;;;;5009552;28;20115;-69
2024/02/19 09:14:42;;;;;;;0.80;0.10;;;;;;;;;;4992139;28;20022;-68
2024/02/19 09:17:08;;;;;;;0.70;0.47;;;;;;;;;;5009675;28;20118;-68
2024/02/19 09:19:34;;;;;;;0.17;0.17;;;;;;;;;;5009622;28;20378;-67
2024/02/19 09:22:00;;;;;;;0.40;0.00;;;;;;;;;;5009644;28;20033;-68
2024/02/19 09:24:26;;;;;;;0.85;0.20;;;;;;;;;;5009754;28;20046;-68
2024/02/19 09:26:52;;;;;;;0.30;0.08;;;;;;;;;;5009883;28;20076;-68
2024/02/19 09:29:18;;;;;;;1.55;0.20;;;;;;;;;;5009507;28;20505;-68
2024/02/19 09:31:44;;;;;;;0.20;0.05;;;;;;;;;;5009672;28;20446;-68
2024/02/19 09:34:10;;;;;;;0.47;0.15;;;;;;;;;;5009906;28;20108;-68
2024/02/19 09:36:36;;;;;;;0.20;0.10;;;;;;;;;;5009716;28;20026;-68
2024/02/19 09:39:02;;;;;;;0.13;0.05;;;;;;;;;;5012095;28;20482;-67
2024/02/19 09:41:29;;;;;;;0.22;0.10;;;;;;;;;;5013006;28;20041;-67
2024/02/19 09:43:55;;;;;;;0.17;0.17;;;;;;;;;;5012939;28;20393;-68
2024/02/19 09:46:22;;;;;;;0.30;0.10;;;;;;;;;;5013410;28;20046;-68
2024/02/19 09:48:49;;;;;;;0.43;0.17;;;;;;;;;;5013128;28;20029;-68
2024/02/19 09:51:20;;;;;;;1.05;0.10;;;;;;;;;;5012825;28;20089;-68
2024/02/19 09:53:51;;;;;;;0.10;0.10;;;;;;;;;;5013153;28;20099;-68
2024/02/19 09:56:17;;;;;;;0.20;0.10;;;;;;;;;;5012856;28;20088;-68
2024/02/19 09:58:45;;;;;;;0.17;0.10;;;;;;;;;;5013033;28;20037;-69
2024/02/19 10:01:11;;;;;;;1.45;0.40;;;;;;;;;;5012855;28;20497;-69
2024/02/19 10:03:37;;;;;;;0.10;0.10;;;;;;;;;;5013014;28;20094;-68
2024/02/19 10:06:03;;;;;;;0.15;0.10;;;;;;;;;;5012918;28;20033;-68
2024/02/19 10:08:29;;;;;;;0.98;0.30;;;;;;;;;;5012529;28;20087;-68
2024/02/19 10:10:56;;;;;;;0.50;0.40;;;;;;;;;;5012356;28;20030;-68
2024/02/19 10:13:23;;;;;;;1.13;0.20;;;;;;;;;;4995273;28;20489;-68
2024/02/19 10:15:50;;;;;;;0.80;0.10;;;;;;;;;;5012620;28;20033;-68
2024/02/19 10:18:20;;;;;;;0.00;0.00;;;;;;;;;;5012657;28;20060;-68
2024/02/19 10:20:48;;;;;;;0.30;0.10;;;;;;;;;;5012440;28;20037;-68
2024/02/19 10:23:14;;;;;;;0.52;0.20;;;;;;;;;;5012551;28;20045;-68
2024/02/19 10:25:41;;;;;;;0.20;0.20;;;;;;;;;;5012360;28;20030;-68
2024/02/19 10:28:09;;;;;;;0.17;0.10;;;;;;;;;;5012644;28;20030;-69
2024/02/19 10:30:35;;;;;;;0.60;0.10;;;;;;;;;;5012212;28;20030;-68
2024/02/19 10:33:01;;;;;;;0.30;0.10;;;;;;;;;;5012337;28;20041;-68
2024/02/19 10:35:28;;;;;;;0.85;0.10;;;;;;;;;;5012238;28;20029;-68
2024/02/19 10:37:58;;;;;;;1.05;0.30;;;;;;;;;;5012060;28;20036;-68
2024/02/19 10:40:24;;;;;;;0.70;0.13;;;;;;;;;;5012087;28;20630;-68
2024/02/19 10:42:51;;;;;;;0.10;0.10;;;;;;;;;;5012226;28;20105;-69
2024/02/19 10:45:18;;;;;;;0.20;0.20;;;;;;;;;;5012133;28;20067;-68
2024/02/19 10:47:44;;;;;;;0.40;0.20;;;;;;;;;;5011959;28;20053;-68
2024/02/19 10:50:11;;;;;;;0.30;0.13;;;;;;;;;;5011604;28;20037;-69
2024/02/19 10:52:41;;;;;;;0.30;0.20;;;;;;;;;;5011544;28;20042;-68
2024/02/19 10:55:14;;;;;;;0.10;0.10;;;;;;;;;;5011716;28;20022;-68
2024/02/19 10:57:48;;;;;;;0.17;0.13;;;;;;;;;;5041565;23;20097;-63
2024/02/19 11:00:14;;;;;;;0.45;0.20;;;;;;;;;;5072352;28;20488;-60
2024/02/19 11:02:40;;;;;;;0.82;0.10;;;;;;;;;;5072667;28;20029;-63
2024/02/19 11:05:12;;;;;;;0.60;0.28;;;;;;;;;;5072848;28;20036;-64
2024/02/19 11:07:41;;;;;;;0.10;0.00;;;;;;;;;;5072746;28;20021;-63
2024/02/19 11:10:08;;;;;;;0.20;0.20;;;;;;;;;;5072599;28;20024;-63
2024/02/19 11:12:35;;;;;;;0.65;0.10;;;;;;;;;;5072738;28;20043;-61
2024/02/19 11:15:01;;;;;;;0.10;0.10;;;;;;;;;;5072682;28;20099;-64
2024/02/19 11:17:28;;;;;;;0.00;0.00;;;;;;;;;;5072464;28;20561;-63
2024/02/19 11:19:54;;;;;;;0.10;0.10;;;;;;;;;;5072497;28;20074;-64
2024/02/19 11:22:33;;;;;;;0.13;0.08;;;;;;;;;;5072269;28;20036;-64
2024/02/19 11:24:59;;;;;;;0.25;0.20;;;;;;;;;;5072640;28;20024;-63
2024/02/19 11:27:25;;;;;;;0.25;0.20;;;;;;;;;;5072354;28;20027;-63
2024/02/19 11:29:57;;;;;;;0.10;0.10;;;;;;;;;;5072455;28;20036;-62
2024/02/19 11:32:24;;;;;;;0.10;0.10;;;;;;;;;;5072254;28;20024;-63
2024/02/19 11:34:50;;;;;;;0.25;0.10;;;;;;;;;;5072340;28;20537;-62
2024/02/19 11:37:16;;;;;;;0.22;0.10;;;;;;;;;;5072558;28;20051;-62
2024/02/19 11:39:44;;;;;;;0.30;0.10;;;;;;;;;;5072264;28;20472;-63
2024/02/19 11:42:14;;;;;;;0.60;0.20;;;;;;;;;;5072173;28;20020;-63
2024/02/19 11:44:40;;;;;;;0.10;0.00;;;;;;;;;;5072151;28;20411;-64
2024/02/19 11:47:07;;;;;;;0.28;0.00;;;;;;;;;;5070615;28;20020;-64
2024/02/19 11:49:33;;;;;;;0.15;0.10;;;;;;;;;;5072138;28;20048;-61
2024/02/19 11:52:01;;;;;;;0.85;0.38;;;;;;;;;;5071854;28;20024;-63
2024/02/19 11:54:27;;;;;;;4.30;0.22;;;;;;;;;;5071889;28;20392;-62
2024/02/19 11:56:55;;;;;;;0.20;0.20;;;;;;;;;;5071874;28;20158;-63
2024/02/19 11:59:21;;;;;;;0.20;0.10;;;;;;;;;;5071723;28;20041;-63
2024/02/19 12:01:56;;;;;;;0.45;0.28;;;;;;;;;;5071035;28;20166;-64
2024/02/19 12:04:22;;;;;;;0.40;0.25;;;;;;;;;;5071997;28;20039;-63
2024/02/19 12:06:48;;;;;;;0.20;0.20;;;;;;;;;;5071759;28;20024;-64
2024/02/19 12:09:15;;;;;;;1.58;0.03;;;;;;;;;;5071493;28;20553;-63
2024/02/19 12:11:41;;;;;;;0.43;0.20;;;;;;;;;;5071365;28;20456;-63
2024/02/19 12:14:11;;;;;;;0.10;0.10;;;;;;;;;;5071596;28;20028;-64
2024/02/19 12:16:37;;;;;;;0.10;0.10;;;;;;;;;;5071490;28;20541;-63
2024/02/19 12:19:03;;;;;;;0.10;0.03;;;;;;;;;;5070238;28;20032;-64
2024/02/19 12:21:29;;;;;;;0.52;0.10;;;;;;;;;;5071340;28;20016;-63
2024/02/19 12:23:56;;;;;;;0.25;0.00;;;;;;;;;;5071745;28;20020;-64
2024/02/19 12:26:22;;;;;;;0.20;0.10;;;;;;;;;;5071613;28;20502;-64
2024/02/19 12:28:49;;;;;;;0.10;0.08;;;;;;;;;;5071226;28;20066;-64
2024/02/19 12:31:16;;;;;;;0.20;0.20;;;;;;;;;;5071268;28;20545;-64
2024/02/19 12:33:43;;;;;;;0.10;0.10;;;;;;;;;;5071557;28;20028;-64
2024/02/19 12:36:11;;;;;;;0.20;0.20;;;;;;;;;;5073076;28;20035;-64
2024/02/19 12:38:41;;;;;;;0.20;0.10;;;;;;;;;;5075183;28;20107;-64
2024/02/19 12:41:08;;;;;;;0.57;0.13;;;;;;;;;;5074460;28;20033;-64
2024/02/19 12:43:35;;;;;;;0.10;0.10;;;;;;;;;;5073789;28;20032;-64
2024/02/19 12:46:01;;;;;;;0.10;0.10;;;;;;;;;;5073426;28;20040;-64
2024/02/19 12:48:27;;;;;;;0.70;0.30;;;;;;;;;;5072280;28;20020;-65
2024/02/19 12:50:54;;;;;;;0.10;0.10;;;;;;;;;;5071105;28;20025;-64
2024/02/19 12:53:20;;;;;;;0.17;0.08;;;;;;;;;;5071387;28;20392;-65
2024/02/19 12:55:46;;;;;;;0.10;0.10;;;;;;;;;;5070114;28;20026;-65
2024/02/19 12:58:12;;;;;;;0.32;0.00;;;;;;;;;;5070989;28;20040;-64
2024/02/19 13:00:41;;;;;;;0.00;0.00;;;;;;;;;;5070997;28;20021;-64
2024/02/19 13:03:07;;;;;;;0.15;0.00;;;;;;;;;;5071393;28;20028;-64
2024/02/19 13:05:33;;;;;;;0.00;0.00;;;;;;;;;;5071339;28;20017;-64
2024/02/19 13:07:59;;;;;;;0.00;0.00;;;;;;;;;;5071005;28;20017;-62
2024/02/19 13:10:25;;;;;;;0.25;0.00;;;;;;;;;;5071138;28;20032;-64
2024/02/19 13:12:52;;;;;;;0.10;0.08;;;;;;;;;;5072007;28;20455;-64
2024/02/19 13:15:19;;;;;;;0.13;0.10;;;;;;;;;;5075203;28;20025;-64
2024/02/19 13:17:45;;;;;;;0.20;0.00;;;;;;;;;;5074948;28;20047;-64
2024/02/19 13:20:13;;;;;;;0.38;0.10;;;;;;;;;;5074959;28;20055;-64
2024/02/19 13:22:39;;;;;;;0.17;0.10;;;;;;;;;;5074655;28;20028;-64
2024/02/19 13:25:06;;;;;;;0.10;0.10;;;;;;;;;;5074896;28;20029;-64
2024/02/19 13:27:32;;;;;;;0.63;0.20;;;;;;;;;;5074805;28;20021;-64
2024/02/19 13:29:57;;;;;;;0.08;0.05;;;;;;;;;;5074563;28;20484;-64
2024/02/19 13:32:23;;;;;;;0.77;0.13;;;;;;;;;;5073223;28;20032;-64
2024/02/19 13:34:49;;;;;;;0.22;0.20;;;;;;;;;;5074543;28;20024;-64
2024/02/19 13:37:18;;;;;;;0.55;0.05;;;;;;;;;;5074585;28;20100;-64
2024/02/19 13:39:44;;;;;;;0.20;0.08;;;;;;;;;;5074418;28;20442;-63
2024/02/19 13:42:10;;;;;;;0.00;0.00;;;;;;;;;;5074606;28;20035;-64
2024/02/19 13:44:36;;;;;;;0.10;0.10;;;;;;;;;;5073310;28;20062;-64
2024/02/19 13:47:02;;;;;;;0.00;0.00;;;;;;;;;;5074386;28;20093;-64
2024/02/19 13:49:29;;;;;;;0.10;0.10;;;;;;;;;;5074201;28;20500;-64
2024/02/19 13:51:55;;;;;;;0.10;0.10;;;;;;;;;;5074177;28;20025;-65
2024/02/19 13:54:21;;;;;;;0.25;0.10;;;;;;;;;;5074107;28;20024;-64
2024/02/19 13:56:49;;;;;;;0.00;0.00;;;;;;;;;;5074214;28;20446;-64
2024/02/19 13:59:15;;;;;;;0.32;0.00;;;;;;;;;;5074096;28;20040;-64
2024/02/19 14:01:41;;;;;;;0.00;0.00;;;;;;;;;;5074193;28;20115;-64
2024/02/19 14:04:07;;;;;;;0.30;0.10;;;;;;;;;;5074076;28;20085;-64
2024/02/19 14:06:33;;;;;;;0.17;0.10;;;;;;;;;;5074014;28;20103;-63
2024/02/19 14:09:00;;;;;;;0.20;0.10;;;;;;;;;;5074207;28;20492;-63
2024/02/19 14:11:26;;;;;;;0.40;0.10;;;;;;;;;;5074090;28;20021;-63
2024/02/19 14:13:53;;;;;;;0.15;0.10;;;;;;;;;;5072898;28;20020;-63
2024/02/19 14:16:19;;;;;;;0.65;0.10;;;;;;;;;;5074081;28;20512;-63
2024/02/19 14:18:46;;;;;;;0.08;0.08;;;;;;;;;;5073837;28;20592;-63
2024/02/19 14:21:13;;;;;;;0.73;0.10;;;;;;;;;;5073374;28;20044;-64
2024/02/19 14:23:40;;;;;;;0.20;0.15;;;;;;;;;;5073439;28;20020;-64